createdAt,value
2018-11-21T00:00:46.894Z,0.90
2018-11-21T00:07:14.174Z,0.80
2018-11-21T00:16:30.098Z,0.90
2018-11-21T00:19:34.786Z,0.90
2018-11-21T00:29:47.767Z,0.90
2018-11-21T00:39:03.590Z,0.90
2018-11-21T00:45:15.961Z,0.90
2018-11-21T00:48:21.464Z,0.90
2018-11-21T00:54:30.617Z,0.90
2018-11-21T01:03:46.966Z,1.00
2018-11-21T01:13:03.994Z,0.90
2018-11-21T01:19:16.269Z,1.00
2018-11-21T01:25:28.575Z,0.90
2018-11-21T01:28:34.056Z,1.00
2018-11-21T01:34:43.342Z,0.90
2018-11-21T01:40:51.973Z,1.00
2018-11-21T01:43:58.550Z,1.00
2018-11-21T01:50:11.289Z,1.00
2018-11-21T01:56:23.470Z,1.00
2018-11-21T02:02:32.757Z,1.00
2018-11-21T02:08:42.204Z,1.00
2018-11-21T02:17:57.970Z,1.00
2018-11-21T02:21:03.563Z,0.90
2018-11-21T02:30:19.933Z,0.90
2018-11-21T02:36:32.341Z,0.90
2018-11-21T02:42:41.180Z,0.90
2018-11-21T02:48:50.597Z,0.90
2018-11-21T02:58:06.263Z,0.80
2018-11-21T03:08:18.466Z,0.80
2018-11-21T03:11:26.286Z,0.80
2018-11-21T03:14:31.270Z,0.80
2018-11-21T03:23:47.977Z,0.80
2018-11-21T03:26:53.375Z,0.80
2018-11-21T03:33:06.512Z,0.90
2018-11-21T03:43:18.879Z,0.80
2018-11-21T03:49:31.383Z,0.90
2018-11-21T03:52:36.580Z,0.80
2018-11-21T03:58:46.043Z,0.80
2018-11-21T04:01:51.175Z,0.80
2018-11-21T04:04:56.450Z,0.80
2018-11-21T04:11:05.980Z,0.80
2018-11-21T04:17:18.172Z,0.80
2018-11-21T04:23:30.634Z,0.90
2018-11-21T04:26:36.134Z,0.90
2018-11-21T04:32:48.213Z,0.90
2018-11-21T04:35:53.507Z,1.00
2018-11-21T04:42:02.486Z,0.90
2018-11-21T04:45:08.061Z,0.90
2018-11-21T04:54:24.638Z,0.90
2018-11-21T05:00:33.786Z,0.90
2018-11-21T05:06:43.014Z,0.90
2018-11-21T05:12:52.387Z,0.90
2018-11-21T05:19:01.668Z,0.80
2018-11-21T05:25:14.729Z,0.80
2018-11-21T05:31:26.056Z,0.80
2018-11-21T05:37:38.338Z,0.90
2018-11-21T05:43:47.603Z,0.90
2018-11-21T05:49:56.640Z,0.90
2018-11-21T05:56:05.278Z,0.90
2018-11-21T06:02:14.619Z,0.90
2018-11-21T06:08:26.604Z,0.90
2018-11-21T06:11:31.241Z,0.90
2018-11-21T06:17:40.195Z,0.90
2018-11-21T06:23:51.931Z,0.80
2018-11-21T06:30:05.533Z,0.90
2018-11-21T06:36:18.426Z,0.90
2018-11-21T06:42:27.804Z,0.80
2018-11-21T06:48:37.046Z,0.90
2018-11-21T06:54:46.123Z,0.90
2018-11-21T07:00:59.096Z,0.80
2018-11-21T07:07:12.121Z,0.90
2018-11-21T07:13:25.165Z,0.90
2018-11-21T07:19:36.852Z,0.90
2018-11-21T07:25:45.777Z,1.00
2018-11-21T07:31:58.339Z,1.10
2018-11-21T07:38:07.829Z,1.10
2018-11-21T07:44:16.466Z,1.20
2018-11-21T07:53:32.382Z,1.30
2018-11-21T07:59:40.994Z,1.30
2018-11-21T08:05:54.673Z,1.30
2018-11-21T08:12:03.285Z,1.40
2018-11-21T08:18:15.551Z,1.40
2018-11-21T08:24:28.162Z,1.40
2018-11-21T08:27:33.395Z,1.40
2018-11-21T08:36:50.351Z,1.40
2018-11-21T08:43:02.909Z,1.50
2018-11-21T08:49:11.650Z,1.40
2018-11-21T08:55:21.084Z,1.50
2018-11-21T09:04:37.365Z,1.60
2018-11-21T09:14:28.401Z,1.70
2018-11-21T09:20:37.214Z,1.90
2018-11-21T09:26:46.351Z,1.90
2018-11-21T09:32:54.964Z,2.10
2018-11-21T09:42:11.626Z,2.00
2018-11-21T09:48:20.277Z,1.90
2018-11-21T09:54:29.394Z,2.00
2018-11-21T10:00:38.362Z,2.00
2018-11-21T10:03:43.662Z,1.90
2018-11-21T10:13:07.322Z,1.90
2018-11-21T10:19:16.201Z,2.10
2018-11-21T10:28:32.191Z,1.90
2018-11-21T10:31:37.625Z,2.00
2018-11-21T10:34:42.986Z,2.00
2018-11-21T10:40:51.747Z,2.00
2018-11-21T10:47:04.141Z,2.00
2018-11-21T10:53:13.120Z,2.10
2018-11-21T10:59:22.636Z,2.20
2018-11-21T11:05:31.209Z,2.30
2018-11-21T11:11:39.939Z,2.20
2018-11-21T11:17:48.910Z,2.20
2018-11-21T11:28:01.654Z,2.20
2018-11-21T11:34:10.626Z,2.20
2018-11-21T11:40:20.022Z,2.20
2018-11-21T11:43:24.725Z,2.10
2018-11-21T11:46:30.123Z,2.20
2018-11-21T11:49:34.788Z,2.20
2018-11-21T11:52:40.309Z,2.20
2018-11-21T11:58:49.006Z,2.20
2018-11-21T12:01:53.681Z,2.20
2018-11-21T12:09:27.439Z,2.20
2018-11-21T12:18:46.913Z,2.40
2018-11-21T12:28:03.224Z,2.30
2018-11-21T12:34:15.468Z,2.40
2018-11-21T12:40:24.869Z,2.40
2018-11-21T12:46:33.543Z,2.30
2018-11-21T12:49:38.890Z,2.40
2018-11-21T12:55:51.025Z,2.30
2018-11-21T13:02:02.325Z,2.30
2018-11-21T13:08:11.746Z,2.30
2018-11-21T13:11:15.375Z,2.30
2018-11-21T13:20:31.704Z,2.30
2018-11-21T13:23:36.358Z,2.30
2018-11-21T13:32:59.222Z,2.40
2018-11-21T13:45:10.836Z,2.40
2018-11-21T13:48:16.456Z,2.30
2018-11-21T13:51:21.982Z,2.30
2018-11-21T13:57:31.199Z,2.30
2018-11-21T14:03:40.654Z,2.20
2018-11-21T14:12:56.670Z,2.10
2018-11-21T14:16:01.684Z,2.10
2018-11-21T14:22:18.282Z,2.10
2018-11-21T14:28:26.606Z,2.00
2018-11-21T14:34:34.839Z,1.90
2018-11-21T14:43:49.272Z,1.90
2018-11-21T14:50:01.563Z,1.80
2018-11-21T14:56:10.466Z,1.80
2018-11-21T15:02:19.570Z,1.80
2018-11-21T15:08:31.484Z,1.80
2018-11-21T15:14:43.995Z,1.70
2018-11-21T15:17:51.607Z,1.70
2018-11-21T15:24:04.827Z,1.70
2018-11-21T15:30:14.052Z,1.60
2018-11-21T15:36:26.006Z,1.60
2018-11-21T15:45:45.359Z,1.60
2018-11-21T15:52:01.325Z,1.50
